sensor_id;sensor_type;location;lat;lon;timestamp;temperature;humidity
51719;DHT22;37795;53.236;5.704;2023-05-17T00:00:18;10.40;69.80
51719;DHT22;37795;53.236;5.704;2023-05-17T00:02:44;10.40;69.60
51719;DHT22;37795;53.236;5.704;2023-05-17T00:05:09;10.30;69.60
51719;DHT22;37795;53.236;5.704;2023-05-17T00:07:38;10.30;69.60
51719;DHT22;37795;53.236;5.704;2023-05-17T00:10:04;10.30;69.60
51719;DHT22;37795;53.236;5.704;2023-05-17T00:12:30;10.30;69.30
51719;DHT22;37795;53.236;5.704;2023-05-17T00:14:56;10.30;69.20
51719;DHT22;37795;53.236;5.704;2023-05-17T00:17:21;10.20;69.00
51719;DHT22;37795;53.236;5.704;2023-05-17T00:19:47;10.20;69.00
51719;DHT22;37795;53.236;5.704;2023-05-17T00:22:13;10.20;69.20
51719;DHT22;37795;53.236;5.704;2023-05-17T00:24:39;10.20;69.30
51719;DHT22;37795;53.236;5.704;2023-05-17T00:27:05;10.20;69.20
51719;DHT22;37795;53.236;5.704;2023-05-17T00:29:31;10.20;69.40
51719;DHT22;37795;53.236;5.704;2023-05-17T00:31:56;10.20;69.50
51719;DHT22;37795;53.236;5.704;2023-05-17T00:34:22;10.20;69.50
51719;DHT22;37795;53.236;5.704;2023-05-17T00:36:48;10.10;69.40
51719;DHT22;37795;53.236;5.704;2023-05-17T00:39:13;10.10;69.10
51719;DHT22;37795;53.236;5.704;2023-05-17T00:41:39;10.00;68.90
51719;DHT22;37795;53.236;5.704;2023-05-17T00:44:05;10.00;68.90
51719;DHT22;37795;53.236;5.704;2023-05-17T00:46:30;10.00;69.00
51719;DHT22;37795;53.236;5.704;2023-05-17T00:48:58;10.00;69.20
51719;DHT22;37795;53.236;5.704;2023-05-17T00:51:24;10.00;69.10
51719;DHT22;37795;53.236;5.704;2023-05-17T00:53:50;9.90;69.60
51719;DHT22;37795;53.236;5.704;2023-05-17T00:56:16;9.80;69.80
51719;DHT22;37795;53.236;5.704;2023-05-17T00:58:42;9.80;70.30
51719;DHT22;37795;53.236;5.704;2023-05-17T01:01:08;9.90;70.80
51719;DHT22;37795;53.236;5.704;2023-05-17T01:03:34;10.00;70.60
51719;DHT22;37795;53.236;5.704;2023-05-17T01:06:01;10.00;70.30
51719;DHT22;37795;53.236;5.704;2023-05-17T01:08:26;10.00;70.30
51719;DHT22;37795;53.236;5.704;2023-05-17T01:11:13;10.00;70.40
51719;DHT22;37795;53.236;5.704;2023-05-17T01:16:47;10.00;70.10
51719;DHT22;37795;53.236;5.704;2023-05-17T01:27:47;10.10;69.70
51719;DHT22;37795;53.236;5.704;2023-05-17T01:30:15;10.10;70.10
51719;DHT22;37795;53.236;5.704;2023-05-17T01:32:42;10.10;70.10
51719;DHT22;37795;53.236;5.704;2023-05-17T01:35:10;10.10;70.20
51719;DHT22;37795;53.236;5.704;2023-05-17T01:37:37;10.10;69.70
51719;DHT22;37795;53.236;5.704;2023-05-17T01:40:03;10.10;69.40
51719;DHT22;37795;53.236;5.704;2023-05-17T01:42:33;10.10;68.80
51719;DHT22;37795;53.236;5.704;2023-05-17T01:48:14;10.00;68.80
51719;DHT22;37795;53.236;5.704;2023-05-17T01:50:42;9.90;68.90
51719;DHT22;37795;53.236;5.704;2023-05-17T01:53:19;9.90;69.00
51719;DHT22;37795;53.236;5.704;2023-05-17T01:55:56;9.80;69.10
51719;DHT22;37795;53.236;5.704;2023-05-17T01:58:24;9.80;69.20
51719;DHT22;37795;53.236;5.704;2023-05-17T02:00:53;9.80;69.20
51719;DHT22;37795;53.236;5.704;2023-05-17T02:03:20;9.80;69.00
51719;DHT22;37795;53.236;5.704;2023-05-17T02:05:46;9.80;68.90
51719;DHT22;37795;53.236;5.704;2023-05-17T02:08:12;9.70;69.00
51719;DHT22;37795;53.236;5.704;2023-05-17T02:10:38;9.70;68.90
51719;DHT22;37795;53.236;5.704;2023-05-17T02:13:04;9.70;68.90
51719;DHT22;37795;53.236;5.704;2023-05-17T02:15:30;9.70;68.50
51719;DHT22;37795;53.236;5.704;2023-05-17T02:17:56;9.60;68.50
51719;DHT22;37795;53.236;5.704;2023-05-17T02:20:22;9.60;68.50
51719;DHT22;37795;53.236;5.704;2023-05-17T02:22:48;9.60;68.40
51719;DHT22;37795;53.236;5.704;2023-05-17T02:25:13;9.60;68.80
51719;DHT22;37795;53.236;5.704;2023-05-17T02:27:39;9.60;68.40
51719;DHT22;37795;53.236;5.704;2023-05-17T02:30:06;9.60;68.10
51719;DHT22;37795;53.236;5.704;2023-05-17T02:32:32;9.60;68.10
51719;DHT22;37795;53.236;5.704;2023-05-17T02:34:58;9.50;68.30
51719;DHT22;37795;53.236;5.704;2023-05-17T02:37:24;9.60;68.50
51719;DHT22;37795;53.236;5.704;2023-05-17T02:39:50;9.50;68.80
51719;DHT22;37795;53.236;5.704;2023-05-17T02:42:16;9.50;69.10
51719;DHT22;37795;53.236;5.704;2023-05-17T02:44:42;9.40;69.10
51719;DHT22;37795;53.236;5.704;2023-05-17T02:47:07;9.40;69.40
51719;DHT22;37795;53.236;5.704;2023-05-17T02:49:33;9.40;69.50
51719;DHT22;37795;53.236;5.704;2023-05-17T02:51:59;9.50;69.00
51719;DHT22;37795;53.236;5.704;2023-05-17T02:54:25;9.50;68.70
51719;DHT22;37795;53.236;5.704;2023-05-17T02:56:51;9.50;68.40
51719;DHT22;37795;53.236;5.704;2023-05-17T02:59:17;9.50;68.00
51719;DHT22;37795;53.236;5.704;2023-05-17T03:01:42;9.40;67.80
51719;DHT22;37795;53.236;5.704;2023-05-17T03:04:08;9.40;67.80
51719;DHT22;37795;53.236;5.704;2023-05-17T03:06:34;9.30;67.70
51719;DHT22;37795;53.236;5.704;2023-05-17T03:09:00;9.30;67.90
51719;DHT22;37795;53.236;5.704;2023-05-17T03:11:25;9.30;68.00
51719;DHT22;37795;53.236;5.704;2023-05-17T03:13:51;9.40;67.70
51719;DHT22;37795;53.236;5.704;2023-05-17T03:16:17;9.40;67.20
51719;DHT22;37795;53.236;5.704;2023-05-17T03:18:43;9.40;67.00
51719;DHT22;37795;53.236;5.704;2023-05-17T03:21:09;9.40;66.90
51719;DHT22;37795;53.236;5.704;2023-05-17T03:23:35;9.30;66.90
51719;DHT22;37795;53.236;5.704;2023-05-17T03:26:00;9.30;67.00
51719;DHT22;37795;53.236;5.704;2023-05-17T03:28:26;9.40;66.70
51719;DHT22;37795;53.236;5.704;2023-05-17T03:30:52;9.40;66.50
51719;DHT22;37795;53.236;5.704;2023-05-17T03:33:18;9.40;66.40
51719;DHT22;37795;53.236;5.704;2023-05-17T03:35:44;9.50;66.20
51719;DHT22;37795;53.236;5.704;2023-05-17T03:38:12;9.50;65.70
51719;DHT22;37795;53.236;5.704;2023-05-17T03:40:39;9.50;65.40
51719;DHT22;37795;53.236;5.704;2023-05-17T03:43:05;9.60;65.00
51719;DHT22;37795;53.236;5.704;2023-05-17T03:45:31;9.60;64.50
51719;DHT22;37795;53.236;5.704;2023-05-17T03:47:57;9.50;64.50
51719;DHT22;37795;53.236;5.704;2023-05-17T03:50:23;9.50;64.40
51719;DHT22;37795;53.236;5.704;2023-05-17T03:52:49;9.40;64.70
51719;DHT22;37795;53.236;5.704;2023-05-17T03:55:14;9.40;65.10
51719;DHT22;37795;53.236;5.704;2023-05-17T03:57:40;9.30;65.50
51719;DHT22;37795;53.236;5.704;2023-05-17T04:00:06;9.40;65.30
51719;DHT22;37795;53.236;5.704;2023-05-17T04:02:35;9.40;64.80
51719;DHT22;37795;53.236;5.704;2023-05-17T04:05:01;9.40;64.90
51719;DHT22;37795;53.236;5.704;2023-05-17T04:07:27;9.40;64.80
51719;DHT22;37795;53.236;5.704;2023-05-17T04:09:55;9.40;63.90
51719;DHT22;37795;53.236;5.704;2023-05-17T04:12:23;9.40;63.80
51719;DHT22;37795;53.236;5.704;2023-05-17T04:14:49;9.30;63.70
51719;DHT22;37795;53.236;5.704;2023-05-17T04:17:15;9.30;64.10
51719;DHT22;37795;53.236;5.704;2023-05-17T04:19:41;9.20;64.00
51719;DHT22;37795;53.236;5.704;2023-05-17T04:22:06;9.10;64.10
51719;DHT22;37795;53.236;5.704;2023-05-17T04:24:32;9.10;64.50
51719;DHT22;37795;53.236;5.704;2023-05-17T04:26:58;9.20;64.60
51719;DHT22;37795;53.236;5.704;2023-05-17T04:29:24;9.20;64.80
51719;DHT22;37795;53.236;5.704;2023-05-17T04:31:50;9.20;65.20
51719;DHT22;37795;53.236;5.704;2023-05-17T04:34:16;9.20;65.20
51719;DHT22;37795;53.236;5.704;2023-05-17T04:36:41;9.30;65.60
51719;DHT22;37795;53.236;5.704;2023-05-17T04:39:07;9.30;65.60
51719;DHT22;37795;53.236;5.704;2023-05-17T04:41:33;9.30;65.40
51719;DHT22;37795;53.236;5.704;2023-05-17T04:43:59;9.30;65.40
51719;DHT22;37795;53.236;5.704;2023-05-17T04:46:25;9.30;65.50
51719;DHT22;37795;53.236;5.704;2023-05-17T04:48:51;9.40;65.60
51719;DHT22;37795;53.236;5.704;2023-05-17T04:51:17;9.50;65.20
51719;DHT22;37795;53.236;5.704;2023-05-17T04:53:43;9.50;64.80
51719;DHT22;37795;53.236;5.704;2023-05-17T04:56:09;9.60;64.40
51719;DHT22;37795;53.236;5.704;2023-05-17T04:58:35;9.60;64.60
51719;DHT22;37795;53.236;5.704;2023-05-17T05:01:00;9.60;64.60
51719;DHT22;37795;53.236;5.704;2023-05-17T05:03:26;9.60;64.80
51719;DHT22;37795;53.236;5.704;2023-05-17T05:05:52;9.60;64.60
51719;DHT22;37795;53.236;5.704;2023-05-17T05:08:18;9.60;64.10
51719;DHT22;37795;53.236;5.704;2023-05-17T05:10:43;9.60;64.40
51719;DHT22;37795;53.236;5.704;2023-05-17T05:13:09;9.60;64.40
51719;DHT22;37795;53.236;5.704;2023-05-17T05:15:35;9.60;64.30
51719;DHT22;37795;53.236;5.704;2023-05-17T05:18:02;9.60;64.00
51719;DHT22;37795;53.236;5.704;2023-05-17T05:20:28;9.60;64.20
51719;DHT22;37795;53.236;5.704;2023-05-17T05:22:53;9.60;64.30
51719;DHT22;37795;53.236;5.704;2023-05-17T05:25:19;9.70;63.80
51719;DHT22;37795;53.236;5.704;2023-05-17T05:27:45;9.70;63.90
51719;DHT22;37795;53.236;5.704;2023-05-17T05:30:11;9.70;64.00
51719;DHT22;37795;53.236;5.704;2023-05-17T05:32:37;9.80;63.80
51719;DHT22;37795;53.236;5.704;2023-05-17T05:35:04;9.90;63.50
51719;DHT22;37795;53.236;5.704;2023-05-17T05:37:30;9.90;62.90
51719;DHT22;37795;53.236;5.704;2023-05-17T05:39:56;9.90;62.90
51719;DHT22;37795;53.236;5.704;2023-05-17T05:42:21;9.90;63.60
51719;DHT22;37795;53.236;5.704;2023-05-17T05:44:47;9.90;63.70
51719;DHT22;37795;53.236;5.704;2023-05-17T05:47:13;9.90;63.90
51719;DHT22;37795;53.236;5.704;2023-05-17T05:49:38;10.00;63.70
51719;DHT22;37795;53.236;5.704;2023-05-17T05:52:04;10.00;63.40
51719;DHT22;37795;53.236;5.704;2023-05-17T05:54:30;10.10;63.10
51719;DHT22;37795;53.236;5.704;2023-05-17T05:56:55;10.10;62.90
51719;DHT22;37795;53.236;5.704;2023-05-17T05:59:21;10.10;62.90
51719;DHT22;37795;53.236;5.704;2023-05-17T06:01:47;10.10;63.30
51719;DHT22;37795;53.236;5.704;2023-05-17T06:04:12;10.10;63.00
51719;DHT22;37795;53.236;5.704;2023-05-17T06:06:38;10.10;62.60
51719;DHT22;37795;53.236;5.704;2023-05-17T06:09:04;10.10;62.40
51719;DHT22;37795;53.236;5.704;2023-05-17T06:11:31;10.10;61.90
51719;DHT22;37795;53.236;5.704;2023-05-17T06:13:56;10.10;62.00
51719;DHT22;37795;53.236;5.704;2023-05-17T06:16:22;10.10;62.60
51719;DHT22;37795;53.236;5.704;2023-05-17T06:18:48;10.10;62.10
51719;DHT22;37795;53.236;5.704;2023-05-17T06:21:13;10.10;62.00
51719;DHT22;37795;53.236;5.704;2023-05-17T06:23:40;10.10;62.10
51719;DHT22;37795;53.236;5.704;2023-05-17T06:26:06;10.10;61.10
51719;DHT22;37795;53.236;5.704;2023-05-17T06:28:35;10.20;61.50
51719;DHT22;37795;53.236;5.704;2023-05-17T06:31:00;10.40;60.10
51719;DHT22;37795;53.236;5.704;2023-05-17T06:33:26;10.50;59.50
51719;DHT22;37795;53.236;5.704;2023-05-17T06:35:51;10.40;60.00
51719;DHT22;37795;53.236;5.704;2023-05-17T06:38:17;10.40;60.20
51719;DHT22;37795;53.236;5.704;2023-05-17T06:40:43;10.40;60.60
51719;DHT22;37795;53.236;5.704;2023-05-17T06:43:08;10.40;60.70
51719;DHT22;37795;53.236;5.704;2023-05-17T06:45:34;10.40;60.60
51719;DHT22;37795;53.236;5.704;2023-05-17T06:47:59;10.40;60.40
51719;DHT22;37795;53.236;5.704;2023-05-17T06:56:15;10.70;60.50
51719;DHT22;37795;53.236;5.704;2023-05-17T06:58:41;10.40;60.60
51719;DHT22;37795;53.236;5.704;2023-05-17T07:01:07;10.40;60.30
51719;DHT22;37795;53.236;5.704;2023-05-17T07:03:33;10.70;60.40
51719;DHT22;37795;53.236;5.704;2023-05-17T07:06:00;10.80;60.00
51719;DHT22;37795;53.236;5.704;2023-05-17T07:08:26;10.80;59.70
51719;DHT22;37795;53.236;5.704;2023-05-17T07:10:52;10.80;59.70
51719;DHT22;37795;53.236;5.704;2023-05-17T07:13:18;10.80;59.50
51719;DHT22;37795;53.236;5.704;2023-05-17T07:15:44;10.90;59.20
51719;DHT22;37795;53.236;5.704;2023-05-17T07:18:10;10.90;58.80
51719;DHT22;37795;53.236;5.704;2023-05-17T07:20:36;11.00;58.60
51719;DHT22;37795;53.236;5.704;2023-05-17T07:23:02;10.90;58.80
51719;DHT22;37795;53.236;5.704;2023-05-17T07:25:28;10.80;58.70
51719;DHT22;37795;53.236;5.704;2023-05-17T07:27:54;10.80;58.70
51719;DHT22;37795;53.236;5.704;2023-05-17T07:30:19;10.90;59.50
51719;DHT22;37795;53.236;5.704;2023-05-17T07:32:45;10.90;58.90
51719;DHT22;37795;53.236;5.704;2023-05-17T07:35:11;11.00;58.90
51719;DHT22;37795;53.236;5.704;2023-05-17T07:37:36;11.00;58.60
51719;DHT22;37795;53.236;5.704;2023-05-17T07:40:02;11.00;58.30
51719;DHT22;37795;53.236;5.704;2023-05-17T07:42:30;11.00;58.50
51719;DHT22;37795;53.236;5.704;2023-05-17T07:44:55;11.00;58.50
51719;DHT22;37795;53.236;5.704;2023-05-17T07:47:21;11.10;58.70
51719;DHT22;37795;53.236;5.704;2023-05-17T07:49:47;11.30;58.70
51719;DHT22;37795;53.236;5.704;2023-05-17T07:52:13;11.20;58.80
51719;DHT22;37795;53.236;5.704;2023-05-17T07:54:38;11.20;59.40
51719;DHT22;37795;53.236;5.704;2023-05-17T07:57:04;11.10;59.90
51719;DHT22;37795;53.236;5.704;2023-05-17T07:59:30;11.10;60.10
51719;DHT22;37795;53.236;5.704;2023-05-17T08:01:56;11.10;60.00
51719;DHT22;37795;53.236;5.704;2023-05-17T08:04:21;11.10;60.40
51719;DHT22;37795;53.236;5.704;2023-05-17T08:06:49;11.00;60.60
51719;DHT22;37795;53.236;5.704;2023-05-17T08:09:15;11.00;60.80
51719;DHT22;37795;53.236;5.704;2023-05-17T08:11:41;11.00;60.90
51719;DHT22;37795;53.236;5.704;2023-05-17T08:14:14;11.00;61.10
51719;DHT22;37795;53.236;5.704;2023-05-17T08:16:44;11.10;61.20
51719;DHT22;37795;53.236;5.704;2023-05-17T08:19:11;11.10;61.50
51719;DHT22;37795;53.236;5.704;2023-05-17T08:21:41;11.10;61.10
51719;DHT22;37795;53.236;5.704;2023-05-17T08:24:07;11.10;61.20
51719;DHT22;37795;53.236;5.704;2023-05-17T08:26:33;11.20;61.00
51719;DHT22;37795;53.236;5.704;2023-05-17T08:29:00;11.30;61.30
51719;DHT22;37795;53.236;5.704;2023-05-17T08:31:27;11.50;61.00
51719;DHT22;37795;53.236;5.704;2023-05-17T08:33:53;11.50;60.80
51719;DHT22;37795;53.236;5.704;2023-05-17T08:36:19;11.50;59.90
51719;DHT22;37795;53.236;5.704;2023-05-17T08:38:45;11.50;60.00
51719;DHT22;37795;53.236;5.704;2023-05-17T08:41:12;11.50;59.70
51719;DHT22;37795;53.236;5.704;2023-05-17T08:43:37;11.70;59.20
51719;DHT22;37795;53.236;5.704;2023-05-17T08:46:04;11.80;59.30
51719;DHT22;37795;53.236;5.704;2023-05-17T08:48:30;11.70;59.30
51719;DHT22;37795;53.236;5.704;2023-05-17T08:50:56;11.70;58.80
51719;DHT22;37795;53.236;5.704;2023-05-17T08:53:25;11.70;58.10
51719;DHT22;37795;53.236;5.704;2023-05-17T08:55:56;11.80;57.90
51719;DHT22;37795;53.236;5.704;2023-05-17T08:58:29;11.80;57.80
51719;DHT22;37795;53.236;5.704;2023-05-17T09:00:57;11.80;57.90
51719;DHT22;37795;53.236;5.704;2023-05-17T09:03:24;11.90;58.10
51719;DHT22;37795;53.236;5.704;2023-05-17T09:05:51;12.20;57.80
51719;DHT22;37795;53.236;5.704;2023-05-17T09:08:22;12.50;57.10
51719;DHT22;37795;53.236;5.704;2023-05-17T09:10:49;12.70;56.60
51719;DHT22;37795;53.236;5.704;2023-05-17T09:13:15;12.90;55.50
51719;DHT22;37795;53.236;5.704;2023-05-17T09:15:42;13.10;55.30
51719;DHT22;37795;53.236;5.704;2023-05-17T09:18:11;12.80;54.40
51719;DHT22;37795;53.236;5.704;2023-05-17T09:20:37;12.80;55.20
51719;DHT22;37795;53.236;5.704;2023-05-17T09:23:08;12.60;55.60
51719;DHT22;37795;53.236;5.704;2023-05-17T09:25:35;12.50;56.10
51719;DHT22;37795;53.236;5.704;2023-05-17T09:28:05;12.60;55.50
51719;DHT22;37795;53.236;5.704;2023-05-17T09:30:37;12.50;55.20
51719;DHT22;37795;53.236;5.704;2023-05-17T09:33:08;12.50;55.10
51719;DHT22;37795;53.236;5.704;2023-05-17T09:35:35;12.60;54.80
51719;DHT22;37795;53.236;5.704;2023-05-17T09:38:09;13.00;54.70
51719;DHT22;37795;53.236;5.704;2023-05-17T09:40:46;12.90;54.50
51719;DHT22;37795;53.236;5.704;2023-05-17T09:43:13;12.80;54.80
51719;DHT22;37795;53.236;5.704;2023-05-17T09:45:39;13.00;53.40
51719;DHT22;37795;53.236;5.704;2023-05-17T09:48:18;13.40;53.60
51719;DHT22;37795;53.236;5.704;2023-05-17T09:50:50;13.40;53.20
51719;DHT22;37795;53.236;5.704;2023-05-17T09:53:31;13.30;54.30
51719;DHT22;37795;53.236;5.704;2023-05-17T09:56:01;13.40;54.00
51719;DHT22;37795;53.236;5.704;2023-05-17T09:58:31;13.50;53.80
51719;DHT22;37795;53.236;5.704;2023-05-17T10:01:01;13.30;52.90
51719;DHT22;37795;53.236;5.704;2023-05-17T10:03:33;13.20;54.40
51719;DHT22;37795;53.236;5.704;2023-05-17T10:06:01;13.30;54.80
51719;DHT22;37795;53.236;5.704;2023-05-17T10:08:30;13.20;54.30
51719;DHT22;37795;53.236;5.704;2023-05-17T10:11:07;13.10;52.70
51719;DHT22;37795;53.236;5.704;2023-05-17T10:13:39;13.00;55.80
51719;DHT22;37795;53.236;5.704;2023-05-17T10:16:06;13.10;55.60
51719;DHT22;37795;53.236;5.704;2023-05-17T10:18:32;13.20;55.70
51719;DHT22;37795;53.236;5.704;2023-05-17T10:20:58;13.40;55.50
51719;DHT22;37795;53.236;5.704;2023-05-17T10:23:27;13.70;55.50
51719;DHT22;37795;53.236;5.704;2023-05-17T10:25:54;13.60;55.10
51719;DHT22;37795;53.236;5.704;2023-05-17T10:28:20;13.40;54.50
51719;DHT22;37795;53.236;5.704;2023-05-17T10:30:47;13.40;55.20
51719;DHT22;37795;53.236;5.704;2023-05-17T10:33:16;13.20;54.90
51719;DHT22;37795;53.236;5.704;2023-05-17T10:35:43;13.30;56.50
51719;DHT22;37795;53.236;5.704;2023-05-17T10:38:10;13.20;55.30
51719;DHT22;37795;53.236;5.704;2023-05-17T10:40:38;13.10;56.20
51719;DHT22;37795;53.236;5.704;2023-05-17T10:43:05;13.10;57.10
51719;DHT22;37795;53.236;5.704;2023-05-17T10:45:33;13.20;57.40
51719;DHT22;37795;53.236;5.704;2023-05-17T10:48:04;13.10;56.80
51719;DHT22;37795;53.236;5.704;2023-05-17T10:56:13;13.40;58.20
51719;DHT22;37795;53.236;5.704;2023-05-17T10:58:39;12.80;57.40
51719;DHT22;37795;53.236;5.704;2023-05-17T11:01:06;12.80;58.80
51719;DHT22;37795;53.236;5.704;2023-05-17T11:03:32;12.90;58.40
51719;DHT22;37795;53.236;5.704;2023-05-17T11:06:18;12.90;58.10
51719;DHT22;37795;53.236;5.704;2023-05-17T11:09:14;13.00;58.30
51719;DHT22;37795;53.236;5.704;2023-05-17T11:12:06;13.00;59.00
51719;DHT22;37795;53.236;5.704;2023-05-17T11:17:14;13.30;58.80
51719;DHT22;37795;53.236;5.704;2023-05-17T11:20:05;13.60;57.70
51719;DHT22;37795;53.236;5.704;2023-05-17T11:22:43;13.50;57.40
51719;DHT22;37795;53.236;5.704;2023-05-17T11:25:14;13.20;57.30
51719;DHT22;37795;53.236;5.704;2023-05-17T11:27:48;13.10;57.50
51719;DHT22;37795;53.236;5.704;2023-05-17T11:30:18;12.90;58.00
51719;DHT22;37795;53.236;5.704;2023-05-17T11:32:52;12.90;57.70
51719;DHT22;37795;53.236;5.704;2023-05-17T11:35:22;12.90;57.20
51719;DHT22;37795;53.236;5.704;2023-05-17T11:37:51;13.00;57.00
51719;DHT22;37795;53.236;5.704;2023-05-17T11:40:24;13.00;57.00
51719;DHT22;37795;53.236;5.704;2023-05-17T11:48:11;13.00;55.70
51719;DHT22;37795;53.236;5.704;2023-05-17T11:50:38;13.20;56.50
51719;DHT22;37795;53.236;5.704;2023-05-17T11:53:08;13.50;56.50
51719;DHT22;37795;53.236;5.704;2023-05-17T11:55:39;13.70;55.60
51719;DHT22;37795;53.236;5.704;2023-05-17T11:58:10;14.20;55.70
51719;DHT22;37795;53.236;5.704;2023-05-17T12:00:37;14.60;55.10
51719;DHT22;37795;53.236;5.704;2023-05-17T12:03:27;14.90;54.00
51719;DHT22;37795;53.236;5.704;2023-05-17T12:06:09;15.30;53.20
51719;DHT22;37795;53.236;5.704;2023-05-17T12:08:38;15.00;52.70
51719;DHT22;37795;53.236;5.704;2023-05-17T12:11:05;14.90;52.30
51719;DHT22;37795;53.236;5.704;2023-05-17T12:13:33;15.20;50.10
51719;DHT22;37795;53.236;5.704;2023-05-17T12:16:03;15.40;51.30
51719;DHT22;37795;53.236;5.704;2023-05-17T12:18:42;15.10;52.10
51719;DHT22;37795;53.236;5.704;2023-05-17T12:21:11;15.40;51.00
51719;DHT22;37795;53.236;5.704;2023-05-17T12:23:41;15.60;51.40
51719;DHT22;37795;53.236;5.704;2023-05-17T12:26:15;15.70;50.80
51719;DHT22;37795;53.236;5.704;2023-05-17T12:28:42;15.90;49.80
51719;DHT22;37795;53.236;5.704;2023-05-17T12:31:32;16.00;51.10
51719;DHT22;37795;53.236;5.704;2023-05-17T12:33:56;16.30;49.80
51719;DHT22;37795;53.236;5.704;2023-05-17T12:36:23;16.30;49.20
51719;DHT22;37795;53.236;5.704;2023-05-17T12:38:50;16.50;50.00
51719;DHT22;37795;53.236;5.704;2023-05-17T12:41:17;16.30;49.30
51719;DHT22;37795;53.236;5.704;2023-05-17T12:43:44;16.30;50.00
51719;DHT22;37795;53.236;5.704;2023-05-17T12:46:15;16.50;50.50
51719;DHT22;37795;53.236;5.704;2023-05-17T12:48:45;16.40;49.50
51719;DHT22;37795;53.236;5.704;2023-05-17T12:51:13;16.50;48.70
51719;DHT22;37795;53.236;5.704;2023-05-17T12:53:53;16.20;50.50
51719;DHT22;37795;53.236;5.704;2023-05-17T12:56:19;16.40;50.00
51719;DHT22;37795;53.236;5.704;2023-05-17T13:01:55;16.00;48.30
51719;DHT22;37795;53.236;5.704;2023-05-17T13:04:32;16.10;49.90
51719;DHT22;37795;53.236;5.704;2023-05-17T13:07:00;15.80;49.10
51719;DHT22;37795;53.236;5.704;2023-05-17T13:09:28;16.20;49.70
51719;DHT22;37795;53.236;5.704;2023-05-17T13:12:00;16.40;46.40
51719;DHT22;37795;53.236;5.704;2023-05-17T13:14:39;16.50;48.60
51719;DHT22;37795;53.236;5.704;2023-05-17T13:17:10;16.50;48.70
51719;DHT22;37795;53.236;5.704;2023-05-17T13:19:36;16.60;49.30
51719;DHT22;37795;53.236;5.704;2023-05-17T13:22:04;16.80;49.10
51719;DHT22;37795;53.236;5.704;2023-05-17T13:24:33;16.80;48.80
51719;DHT22;37795;53.236;5.704;2023-05-17T13:27:00;16.70;49.20
51719;DHT22;37795;53.236;5.704;2023-05-17T13:29:27;16.90;50.00
51719;DHT22;37795;53.236;5.704;2023-05-17T13:31:53;17.10;48.80
51719;DHT22;37795;53.236;5.704;2023-05-17T13:34:18;17.40;47.80
51719;DHT22;37795;53.236;5.704;2023-05-17T13:36:45;17.30;45.80
51719;DHT22;37795;53.236;5.704;2023-05-17T13:39:11;17.20;48.40
51719;DHT22;37795;53.236;5.704;2023-05-17T13:41:37;17.00;49.10
51719;DHT22;37795;53.236;5.704;2023-05-17T13:44:03;17.10;47.30
51719;DHT22;37795;53.236;5.704;2023-05-17T13:46:29;17.20;46.20
51719;DHT22;37795;53.236;5.704;2023-05-17T13:48:55;17.40;48.40
51719;DHT22;37795;53.236;5.704;2023-05-17T13:51:21;17.30;47.10
51719;DHT22;37795;53.236;5.704;2023-05-17T13:53:47;17.50;47.80
51719;DHT22;37795;53.236;5.704;2023-05-17T13:56:13;16.90;48.70
51719;DHT22;37795;53.236;5.704;2023-05-17T13:58:38;17.20;49.00
51719;DHT22;37795;53.236;5.704;2023-05-17T14:01:04;16.70;47.20
51719;DHT22;37795;53.236;5.704;2023-05-17T14:03:30;16.20;50.20
51719;DHT22;37795;53.236;5.704;2023-05-17T14:05:56;16.20;49.50
51719;DHT22;37795;53.236;5.704;2023-05-17T14:08:22;16.40;49.70
51719;DHT22;37795;53.236;5.704;2023-05-17T14:10:48;16.10;50.30
51719;DHT22;37795;53.236;5.704;2023-05-17T14:13:14;15.90;51.20
51719;DHT22;37795;53.236;5.704;2023-05-17T14:15:39;15.60;51.20
51719;DHT22;37795;53.236;5.704;2023-05-17T14:18:06;15.50;51.20
51719;DHT22;37795;53.236;5.704;2023-05-17T14:20:32;15.40;51.80
51719;DHT22;37795;53.236;5.704;2023-05-17T14:22:58;15.30;52.60
51719;DHT22;37795;53.236;5.704;2023-05-17T14:25:24;15.10;50.80
51719;DHT22;37795;53.236;5.704;2023-05-17T14:27:51;14.70;50.50
51719;DHT22;37795;53.236;5.704;2023-05-17T14:30:18;14.70;54.40
51719;DHT22;37795;53.236;5.704;2023-05-17T14:32:45;14.80;55.00
51719;DHT22;37795;53.236;5.704;2023-05-17T14:35:11;14.80;53.40
51719;DHT22;37795;53.236;5.704;2023-05-17T14:37:36;14.90;53.20
51719;DHT22;37795;53.236;5.704;2023-05-17T14:40:03;15.00;53.90
51719;DHT22;37795;53.236;5.704;2023-05-17T14:42:29;15.60;53.70
51719;DHT22;37795;53.236;5.704;2023-05-17T14:44:56;15.50;52.10
51719;DHT22;37795;53.236;5.704;2023-05-17T14:47:22;15.20;51.30
51719;DHT22;37795;53.236;5.704;2023-05-17T14:49:48;15.10;53.70
51719;DHT22;37795;53.236;5.704;2023-05-17T14:52:14;15.10;54.20
51719;DHT22;37795;53.236;5.704;2023-05-17T14:54:40;14.80;51.20
51719;DHT22;37795;53.236;5.704;2023-05-17T14:57:06;15.00;53.10
51719;DHT22;37795;53.236;5.704;2023-05-17T14:59:34;15.00;54.10
51719;DHT22;37795;53.236;5.704;2023-05-17T15:02:00;15.20;53.60
51719;DHT22;37795;53.236;5.704;2023-05-17T15:04:25;15.10;51.80
51719;DHT22;37795;53.236;5.704;2023-05-17T15:06:51;14.60;50.20
51719;DHT22;37795;53.236;5.704;2023-05-17T15:09:17;14.60;53.90
51719;DHT22;37795;53.236;5.704;2023-05-17T15:11:44;14.70;51.40
51719;DHT22;37795;53.236;5.704;2023-05-17T15:14:13;14.90;55.70
51719;DHT22;37795;53.236;5.704;2023-05-17T15:16:45;14.50;50.00
51719;DHT22;37795;53.236;5.704;2023-05-17T15:19:11;14.10;50.30
51719;DHT22;37795;53.236;5.704;2023-05-17T15:21:38;14.50;55.80
51719;DHT22;37795;53.236;5.704;2023-05-17T15:24:04;14.80;54.00
51719;DHT22;37795;53.236;5.704;2023-05-17T15:26:30;14.90;53.50
51719;DHT22;37795;53.236;5.704;2023-05-17T15:28:56;14.80;53.90
51719;DHT22;37795;53.236;5.704;2023-05-17T15:31:22;14.70;54.20
51719;DHT22;37795;53.236;5.704;2023-05-17T15:33:49;14.30;53.30
51719;DHT22;37795;53.236;5.704;2023-05-17T15:36:14;14.40;54.50
51719;DHT22;37795;53.236;5.704;2023-05-17T15:38:41;14.50;52.80
51719;DHT22;37795;53.236;5.704;2023-05-17T15:41:11;14.70;55.20
51719;DHT22;37795;53.236;5.704;2023-05-17T15:43:39;14.90;54.40
51719;DHT22;37795;53.236;5.704;2023-05-17T15:46:05;15.00;54.50
51719;DHT22;37795;53.236;5.704;2023-05-17T15:48:31;15.00;53.70
51719;DHT22;37795;53.236;5.704;2023-05-17T15:50:59;15.10;53.20
51719;DHT22;37795;53.236;5.704;2023-05-17T15:53:25;15.00;52.70
51719;DHT22;37795;53.236;5.704;2023-05-17T15:55:52;14.80;53.50
51719;DHT22;37795;53.236;5.704;2023-05-17T15:58:22;14.90;54.50
51719;DHT22;37795;53.236;5.704;2023-05-17T16:00:48;14.70;51.10
51719;DHT22;37795;53.236;5.704;2023-05-17T16:03:14;14.70;50.70
51719;DHT22;37795;53.236;5.704;2023-05-17T16:05:41;14.60;51.10
51719;DHT22;37795;53.236;5.704;2023-05-17T16:08:07;14.60;52.60
51719;DHT22;37795;53.236;5.704;2023-05-17T16:10:34;14.70;54.40
51719;DHT22;37795;53.236;5.704;2023-05-17T16:13:04;14.80;53.10